createdAt,value
2023-04-11T00:01:03.956Z,98913.28
2023-04-11T00:02:06.803Z,98920.31
2023-04-11T00:03:09.232Z,98908.44
2023-04-11T00:04:11.613Z,98915.13
2023-04-11T00:05:13.913Z,98907.59
2023-04-11T00:06:16.294Z,98906.25
2023-04-11T00:07:19.223Z,98904.09
2023-04-11T00:08:21.398Z,98907.94
2023-04-11T00:09:23.631Z,98893.75
2023-04-11T00:10:25.897Z,98898.59
2023-04-11T00:11:28.372Z,98897.78
2023-04-11T00:12:30.665Z,98902.63
2023-04-11T00:13:34.190Z,98906.50
2023-04-11T00:14:36.303Z,98905.56
2023-04-11T00:15:39.306Z,98901.69
2023-04-11T00:16:42.475Z,98896.66
2023-04-11T00:17:45.692Z,98894.19
2023-04-11T00:18:48.109Z,98891.66
2023-04-11T00:19:53.190Z,98890.03
2023-04-11T00:20:55.357Z,98889.75
2023-04-11T00:21:58.151Z,98900.19
2023-04-11T00:23:00.452Z,98894.94
2023-04-11T00:24:02.617Z,98910.66
2023-04-11T00:25:05.865Z,98913.38
2023-04-11T00:26:08.228Z,98916.81
2023-04-11T00:27:12.211Z,98916.47
2023-04-11T00:28:14.748Z,98921.75
2023-04-11T00:29:16.988Z,98913.84
2023-04-11T00:30:19.242Z,98929.47
2023-04-11T00:31:21.532Z,98922.34
2023-04-11T00:32:24.695Z,98935.16
2023-04-11T00:33:26.824Z,98936.50
2023-04-11T00:34:29.409Z,98933.28
2023-04-11T00:35:34.577Z,98924.44
2023-04-11T00:36:37.133Z,98919.50
2023-04-11T00:37:39.437Z,98919.31
2023-04-11T00:38:42.249Z,98920.84
2023-04-11T00:39:50.294Z,98908.09
2023-04-11T00:40:52.566Z,98921.63
2023-04-11T00:42:03.824Z,98918.03
2023-04-11T00:43:06.078Z,98932.41
2023-04-11T00:44:08.578Z,98944.66
2023-04-11T00:45:11.256Z,98949.13
2023-04-11T00:46:14.811Z,98946.00
2023-04-11T00:47:18.640Z,98944.16
2023-04-11T00:48:21.687Z,98938.84
2023-04-11T00:49:24.000Z,98945.41
2023-04-11T00:50:27.132Z,98946.91
2023-04-11T00:51:29.402Z,98948.44
2023-04-11T00:52:31.574Z,98948.28
2023-04-11T00:53:37.019Z,98954.88
2023-04-11T00:54:39.500Z,98956.16
2023-04-11T00:55:41.827Z,98963.91
2023-04-11T00:56:43.977Z,98959.75
2023-04-11T00:57:46.415Z,98969.53
2023-04-11T00:58:48.867Z,98962.88
2023-04-11T00:59:51.510Z,98962.06
2023-04-11T01:00:54.113Z,98961.19
2023-04-11T01:01:57.362Z,98970.69
2023-04-11T01:02:59.736Z,98968.00
2023-04-11T01:04:02.773Z,98965.03
2023-04-11T01:05:05.873Z,98977.56
2023-04-11T01:06:11.128Z,98975.81
2023-04-11T01:07:14.342Z,98975.00
2023-04-11T01:08:18.507Z,98989.41
2023-04-11T01:09:23.697Z,98983.63
2023-04-11T01:10:30.493Z,99001.78
2023-04-11T01:11:33.636Z,99009.03
2023-04-11T01:12:38.412Z,99002.00
2023-04-11T01:13:41.859Z,99017.63
2023-04-11T01:14:47.653Z,99017.28
2023-04-11T01:15:49.963Z,99024.38
2023-04-11T01:16:52.523Z,99039.09
2023-04-11T01:17:55.453Z,99029.38
2023-04-11T01:18:57.910Z,99042.38
2023-04-11T01:20:01.177Z,99055.03
2023-04-11T01:21:03.671Z,99044.25
2023-04-11T01:22:08.794Z,99034.00
2023-04-11T01:23:11.347Z,99027.97
2023-04-11T01:24:14.206Z,99040.75
2023-04-11T01:25:20.352Z,99024.34
2023-04-11T01:26:22.611Z,99020.78
2023-04-11T01:27:24.797Z,99011.91
2023-04-11T01:28:27.127Z,99014.47
2023-04-11T01:29:29.305Z,99007.59
2023-04-11T01:30:31.669Z,99006.28
2023-04-11T01:31:34.158Z,98997.34
2023-04-11T01:32:36.338Z,98999.22
2023-04-11T01:33:38.734Z,98995.47
2023-04-11T01:34:42.119Z,98992.16
2023-04-11T01:35:44.483Z,99004.13
2023-04-11T01:36:47.837Z,99020.59
2023-04-11T01:37:50.071Z,99024.16
2023-04-11T01:38:52.608Z,99035.31
2023-04-11T01:39:54.892Z,99029.97
2023-04-11T01:40:58.859Z,99030.69
2023-04-11T01:42:03.470Z,99018.63
2023-04-11T01:43:08.113Z,99008.75
2023-04-11T01:44:10.746Z,99015.78
2023-04-11T01:45:13.337Z,99004.16
2023-04-11T01:46:16.716Z,98995.22
2023-04-11T01:47:18.963Z,98993.50
2023-04-11T01:48:21.197Z,98987.91
2023-04-11T01:49:24.710Z,98995.59
2023-04-11T01:50:27.626Z,98990.97
2023-04-11T01:51:29.962Z,99001.09
2023-04-11T01:52:32.148Z,99004.03
2023-04-11T01:53:34.389Z,98986.25
2023-04-11T01:54:36.562Z,98989.44
2023-04-11T01:55:41.444Z,98990.94
2023-04-11T01:56:43.641Z,98987.75
2023-04-11T01:57:45.886Z,98981.88
2023-04-11T01:58:49.239Z,98983.44
2023-04-11T01:59:51.430Z,98989.56
2023-04-11T02:02:08.509Z,98986.19
2023-04-11T02:03:11.160Z,98982.50
2023-04-11T02:04:13.640Z,98985.66
2023-04-11T02:05:17.011Z,98982.63
2023-04-11T02:06:19.222Z,98982.19
2023-04-11T02:07:21.637Z,98981.13
2023-04-11T02:08:23.871Z,98980.88
2023-04-11T02:09:26.054Z,98994.19
2023-04-11T02:10:28.196Z,99004.00
2023-04-11T02:11:30.864Z,99013.06
2023-04-11T02:12:33.240Z,98997.81
2023-04-11T02:13:35.672Z,98999.69
2023-04-11T02:14:42.950Z,99007.81
2023-04-11T02:15:45.250Z,98996.72
2023-04-11T02:16:51.179Z,99007.66
2023-04-11T02:17:54.191Z,99012.97
2023-04-11T02:18:56.971Z,99006.00
2023-04-11T02:19:59.420Z,99025.59
2023-04-11T02:21:02.023Z,99023.47
2023-04-11T02:22:04.273Z,99015.88
2023-04-11T02:23:07.429Z,99009.19
2023-04-11T02:24:09.719Z,99007.69
2023-04-11T02:25:11.996Z,99014.13
2023-04-11T02:26:14.595Z,99008.34
2023-04-11T02:27:16.849Z,99010.50
2023-04-11T02:28:19.071Z,99014.50
2023-04-11T02:29:21.335Z,99009.66
2023-04-11T02:30:25.560Z,99007.69
2023-04-11T02:31:28.094Z,99006.34
2023-04-11T02:32:30.367Z,98991.19
2023-04-11T02:33:32.601Z,98996.38
2023-04-11T02:34:34.841Z,98994.81
2023-04-11T02:35:38.229Z,99010.41
2023-04-11T02:36:41.652Z,99021.91
2023-04-11T02:37:43.789Z,99028.66
2023-04-11T02:38:45.911Z,99024.88
2023-04-11T02:39:48.431Z,99017.81
2023-04-11T02:40:50.652Z,99014.66
2023-04-11T02:41:52.865Z,99013.41
2023-04-11T02:42:55.103Z,99011.00
2023-04-11T02:43:57.329Z,99019.00
2023-04-11T02:45:00.003Z,99017.94
2023-04-11T02:46:12.855Z,99015.44
2023-04-11T02:47:18.176Z,99018.50
2023-04-11T02:48:21.109Z,99017.41
2023-04-11T02:49:23.232Z,99026.44
2023-04-11T02:50:28.346Z,99009.72
2023-04-11T02:51:31.007Z,99024.41
2023-04-11T02:52:37.582Z,99032.50
2023-04-11T02:53:39.890Z,99028.44
2023-04-11T02:54:42.315Z,99019.97
2023-04-11T02:55:44.559Z,99023.38
2023-04-11T02:56:46.739Z,99035.72
2023-04-11T02:57:49.301Z,99030.53
2023-04-11T02:58:54.316Z,99027.50
2023-04-11T02:59:59.068Z,99024.41
2023-04-11T03:01:11.932Z,99039.22
2023-04-11T03:02:14.635Z,99045.44
2023-04-11T03:03:17.364Z,99055.47
2023-04-11T03:04:21.773Z,99059.34
2023-04-11T03:05:40.126Z,99054.94
2023-04-11T03:06:42.375Z,99054.06
2023-04-11T03:07:44.800Z,99046.38
2023-04-11T03:08:47.500Z,99043.94
2023-04-11T03:09:50.424Z,99037.59
2023-04-11T03:10:52.681Z,99030.00
2023-04-11T03:11:57.473Z,99011.81
2023-04-11T03:12:59.718Z,99007.25
2023-04-11T03:14:02.275Z,99007.56
2023-04-11T03:15:05.322Z,99015.44
2023-04-11T03:16:08.131Z,99010.31
2023-04-11T03:17:10.492Z,99016.16
2023-04-11T03:18:12.776Z,99026.28
2023-04-11T03:19:18.474Z,99034.91
2023-04-11T03:20:20.671Z,99036.81
2023-04-11T03:21:27.461Z,99049.66
2023-04-11T03:22:29.792Z,99050.06
2023-04-11T03:23:33.115Z,99051.28
2023-04-11T03:24:35.514Z,99050.22
2023-04-11T03:25:38.775Z,99043.41
2023-04-11T03:26:41.008Z,99052.31
2023-04-11T03:27:46.809Z,99046.28
2023-04-11T03:28:49.853Z,99050.59
2023-04-11T03:29:54.636Z,99036.47
2023-04-11T03:31:06.693Z,99043.66
2023-04-11T03:32:09.010Z,99054.66
2023-04-11T03:33:12.877Z,99050.00
2023-04-11T03:34:16.026Z,99055.31
2023-04-11T03:35:20.352Z,99048.91
2023-04-11T03:36:26.540Z,99057.81
2023-04-11T03:37:29.501Z,99054.53
2023-04-11T03:38:31.979Z,99064.63
2023-04-11T03:39:34.256Z,99062.25
2023-04-11T03:40:36.543Z,99063.13
2023-04-11T03:41:46.530Z,99059.50
2023-04-11T03:42:49.725Z,99060.44
2023-04-11T03:43:58.233Z,99055.69
2023-04-11T03:45:00.460Z,99061.69
2023-04-11T03:46:02.698Z,99059.63
2023-04-11T03:47:13.481Z,99063.81
2023-04-11T03:48:20.121Z,99062.84
2023-04-11T03:49:27.467Z,99060.91
2023-04-11T03:50:32.287Z,99059.06
2023-04-11T03:51:37.637Z,99056.09
2023-04-11T03:52:42.305Z,99054.16
2023-04-11T03:53:48.658Z,99051.16
2023-04-11T03:55:16.979Z,99054.59
2023-04-11T03:56:19.447Z,99044.09
2023-04-11T03:57:21.649Z,99054.03
2023-04-11T03:58:24.064Z,99048.56
2023-04-11T03:59:26.320Z,99055.28
2023-04-11T04:00:34.268Z,99033.06
2023-04-11T04:01:41.884Z,99041.00
2023-04-11T04:02:44.656Z,99043.13
2023-04-11T04:03:49.993Z,99043.84
2023-04-11T04:04:58.880Z,99052.63
2023-04-11T04:06:05.099Z,99054.28
2023-04-11T04:07:09.910Z,99054.28
2023-04-11T04:08:16.240Z,99047.13
2023-04-11T04:09:21.595Z,99048.53
2023-04-11T04:10:28.178Z,99048.78
2023-04-11T04:11:30.388Z,99055.66
2023-04-11T04:12:33.166Z,99056.34
2023-04-11T04:13:49.003Z,99060.50
2023-04-11T04:14:55.230Z,99060.97
2023-04-11T04:15:58.170Z,99051.81
2023-04-11T04:17:02.867Z,99052.28
2023-04-11T04:18:05.835Z,99062.69
2023-04-11T04:19:24.068Z,99066.13
2023-04-11T04:20:27.483Z,99057.16
2023-04-11T04:21:37.997Z,99059.78
2023-04-11T04:22:40.673Z,99066.59
2023-04-11T04:23:47.830Z,99067.31
2023-04-11T04:24:50.123Z,99065.28
2023-04-11T04:25:58.108Z,99059.41
2023-04-11T04:27:02.490Z,99064.16
2023-04-11T04:28:17.045Z,99066.88
2023-04-11T04:29:19.395Z,99067.75
2023-04-11T04:30:30.241Z,99057.81
2023-04-11T04:31:41.011Z,99061.59
2023-04-11T04:32:44.142Z,99065.19
2023-04-11T04:33:49.477Z,99065.72
2023-04-11T04:34:57.648Z,99067.88
2023-04-11T04:36:18.092Z,99065.19
2023-04-11T04:37:24.334Z,99069.84
2023-04-11T04:38:38.361Z,99065.91
2023-04-11T04:39:43.602Z,99067.69
2023-04-11T04:40:50.833Z,99068.31
2023-04-11T04:41:58.236Z,99069.03
2023-04-11T04:43:04.879Z,99070.69
2023-04-11T04:44:16.551Z,99074.69
2023-04-11T04:45:26.216Z,99070.41
2023-04-11T04:46:31.498Z,99068.13
2023-04-11T04:47:37.266Z,99070.09
2023-04-11T04:48:39.759Z,99068.59
2023-04-11T04:49:43.260Z,99069.94
2023-04-11T04:50:45.947Z,99073.66
2023-04-11T04:51:48.979Z,99075.53
2023-04-11T04:52:51.315Z,99083.97
2023-04-11T04:53:54.408Z,99077.66
2023-04-11T04:54:58.044Z,99090.84
2023-04-11T04:56:02.017Z,99096.84
2023-04-11T04:57:07.593Z,99089.31
2023-04-11T04:58:09.772Z,99086.22
2023-04-11T04:59:15.439Z,99095.28
2023-04-11T05:00:23.250Z,99099.56
2023-04-11T05:01:27.072Z,99110.53
2023-04-11T05:02:32.363Z,99124.25
2023-04-11T05:03:35.883Z,99136.47
2023-04-11T05:04:40.328Z,99139.03
2023-04-11T05:05:42.896Z,99155.50
2023-04-11T05:06:45.341Z,99148.66
2023-04-11T05:07:48.354Z,99152.69
2023-04-11T05:08:50.792Z,99153.00
2023-04-11T05:09:53.093Z,99138.00
2023-04-11T05:10:59.278Z,99142.28
2023-04-11T05:12:01.623Z,99139.66
2023-04-11T05:13:03.844Z,99129.31
2023-04-11T05:14:06.113Z,99130.56
2023-04-11T05:15:11.656Z,99138.56
2023-04-11T05:16:17.223Z,99135.84
2023-04-11T05:17:19.871Z,99135.78
2023-04-11T05:18:22.060Z,99140.19
2023-04-11T05:19:24.263Z,99137.28
2023-04-11T05:20:29.558Z,99149.19
2023-04-11T05:21:32.859Z,99151.72
2023-04-11T05:22:36.271Z,99145.81
2023-04-11T05:23:38.541Z,99151.28
2023-04-11T05:24:41.620Z,99158.06
2023-04-11T05:25:46.492Z,99161.63
2023-04-11T05:26:50.840Z,99161.63
2023-04-11T05:27:54.624Z,99168.69
2023-04-11T05:28:59.792Z,99179.06
2023-04-11T05:30:04.084Z,99171.88
2023-04-11T05:31:11.947Z,99165.09
2023-04-11T05:32:14.676Z,99166.81
2023-04-11T05:33:17.184Z,99165.72
2023-04-11T05:34:19.915Z,99161.63
2023-04-11T05:35:24.549Z,99172.19
2023-04-11T05:36:30.318Z,99167.13
2023-04-11T05:37:32.517Z,99174.16
2023-04-11T05:38:34.848Z,99176.09
2023-04-11T05:39:37.052Z,99168.41
2023-04-11T05:40:39.170Z,99169.72
2023-04-11T05:41:41.889Z,99172.34
2023-04-11T05:42:44.153Z,99172.28
2023-04-11T05:43:46.475Z,99169.44
2023-04-11T05:44:48.743Z,99164.25
2023-04-11T05:45:51.315Z,99171.53
2023-04-11T05:46:53.529Z,99172.34
2023-04-11T05:47:56.697Z,99163.00
2023-04-11T05:49:00.835Z,99164.53
2023-04-11T05:50:03.005Z,99169.88
2023-04-11T05:51:06.403Z,99168.75
2023-04-11T05:52:09.540Z,99177.28
2023-04-11T05:53:12.215Z,99180.88
2023-04-11T05:54:30.660Z,99179.34
2023-04-11T05:55:33.247Z,99175.06
2023-04-11T05:56:37.298Z,99177.13
2023-04-11T05:57:39.556Z,99173.69
2023-04-11T05:58:42.923Z,99184.00
2023-04-11T05:59:49.618Z,99189.38
2023-04-11T06:00:51.926Z,99187.88
2023-04-11T06:01:54.423Z,99184.56
2023-04-11T06:02:57.555Z,99180.31
2023-04-11T06:04:00.032Z,99192.72
2023-04-11T06:05:03.866Z,99197.38
2023-04-11T06:06:06.544Z,99193.56
2023-04-11T06:07:08.811Z,99189.72
2023-04-11T06:08:12.039Z,99180.06
2023-04-11T06:09:14.254Z,99190.31
2023-04-11T06:10:16.580Z,99200.09
2023-04-11T06:11:18.804Z,99200.97
2023-04-11T06:12:21.064Z,99202.16
2023-04-11T06:13:23.339Z,99201.34
2023-04-11T06:14:25.589Z,99195.78
2023-04-11T06:15:28.216Z,99206.25
2023-04-11T06:16:32.678Z,99199.19
2023-04-11T06:17:35.442Z,99203.34
2023-04-11T06:18:37.748Z,99201.34
2023-04-11T06:19:40.061Z,99205.84
2023-04-11T06:20:42.246Z,99205.47
2023-04-11T06:21:44.446Z,99199.31
2023-04-11T06:22:51.063Z,99203.38
2023-04-11T06:23:53.786Z,99198.78
2023-04-11T06:24:56.177Z,99198.81
2023-04-11T06:25:58.401Z,99199.22
2023-04-11T06:27:00.690Z,99191.25
2023-04-11T06:28:02.879Z,99188.56
2023-04-11T06:29:06.252Z,99200.63
2023-04-11T06:30:09.521Z,99195.38
2023-04-11T06:31:11.972Z,99195.38
2023-04-11T06:32:14.379Z,99193.56
2023-04-11T06:33:16.573Z,99201.63
2023-04-11T06:34:18.760Z,99210.41
2023-04-11T06:35:24.743Z,99210.84
2023-04-11T06:36:27.393Z,99207.06
2023-04-11T06:37:29.613Z,99208.75
2023-04-11T06:38:31.882Z,99206.50
2023-04-11T06:39:34.760Z,99209.34
2023-04-11T06:40:36.953Z,99208.38
2023-04-11T06:41:39.154Z,99201.41
2023-04-11T06:42:42.091Z,99203.41
2023-04-11T06:43:45.473Z,99207.16
2023-04-11T06:44:48.659Z,99209.84
2023-04-11T06:45:51.610Z,99205.94
2023-04-11T06:46:54.157Z,99214.66
2023-04-11T06:47:56.425Z,99214.34
2023-04-11T06:48:58.614Z,99228.31
2023-04-11T06:50:00.915Z,99224.25
2023-04-11T06:51:03.151Z,99215.84
2023-04-11T06:52:05.265Z,99209.78
2023-04-11T06:53:07.467Z,99208.50
2023-04-11T06:54:10.255Z,99209.78
2023-04-11T06:55:15.301Z,99204.13
2023-04-11T06:56:18.661Z,99210.69
2023-04-11T06:57:20.869Z,99216.94
2023-04-11T06:58:23.017Z,99218.41
2023-04-11T06:59:25.278Z,99219.78
2023-04-11T07:00:28.170Z,99214.72
2023-04-11T07:01:35.459Z,99214.28
2023-04-11T07:02:39.273Z,99219.50
2023-04-11T07:03:41.790Z,99231.22
2023-04-11T07:04:44.347Z,99227.91
2023-04-11T07:05:47.006Z,99230.38
2023-04-11T07:06:49.197Z,99226.53
2023-04-11T07:07:51.418Z,99232.41
2023-04-11T07:08:53.677Z,99241.22
2023-04-11T07:09:55.937Z,99240.19
2023-04-11T07:10:58.150Z,99232.88
2023-04-11T07:12:01.260Z,99235.25
2023-04-11T07:13:03.498Z,99246.88
2023-04-11T07:14:05.894Z,99240.84
2023-04-11T07:15:08.925Z,99236.03
2023-04-11T07:16:11.343Z,99237.59
2023-04-11T07:17:13.865Z,99235.69
2023-04-11T07:18:16.426Z,99241.03
2023-04-11T07:19:18.618Z,99234.69
2023-04-11T07:20:20.849Z,99243.69
2023-04-11T07:21:23.084Z,99239.28
2023-04-11T07:22:25.273Z,99230.84
2023-04-11T07:23:27.645Z,99225.63
2023-04-11T07:24:30.471Z,99235.97
2023-04-11T07:25:33.553Z,99235.56
2023-04-11T07:26:38.597Z,99231.63
2023-04-11T07:27:43.589Z,99240.41
2023-04-11T07:28:47.327Z,99243.44
2023-04-11T07:29:49.534Z,99240.22
2023-04-11T07:30:52.031Z,99240.75
2023-04-11T07:31:54.988Z,99239.41
2023-04-11T07:32:57.301Z,99243.41
2023-04-11T07:33:59.815Z,99240.97
2023-04-11T07:35:02.236Z,99235.63
2023-04-11T07:36:05.920Z,99238.41
2023-04-11T07:37:08.218Z,99241.66
2023-04-11T07:38:10.534Z,99240.56
2023-04-11T07:39:14.200Z,99241.81
2023-04-11T07:40:16.448Z,99235.72
2023-04-11T07:41:18.677Z,99238.38
2023-04-11T07:42:20.940Z,99245.44
2023-04-11T07:43:24.734Z,99235.63
2023-04-11T07:44:27.378Z,99241.50
2023-04-11T07:45:29.652Z,99244.34
2023-04-11T07:46:31.914Z,99243.69
2023-04-11T07:47:34.113Z,99240.53
2023-04-11T07:48:36.389Z,99244.09
2023-04-11T07:49:38.563Z,99231.50
2023-04-11T07:50:40.843Z,99247.47
2023-04-11T07:51:43.054Z,99242.22
2023-04-11T07:52:45.305Z,99237.25
2023-04-11T07:53:47.614Z,99245.91
2023-04-11T07:54:49.752Z,99253.59
2023-04-11T07:55:51.974Z,99244.22
2023-04-11T07:56:54.416Z,99256.63
2023-04-11T07:57:56.696Z,99243.56
2023-04-11T07:58:58.901Z,99245.78
2023-04-11T08:00:01.189Z,99245.59
2023-04-11T08:01:03.746Z,99239.16
2023-04-11T08:02:07.950Z,99249.28
2023-04-11T08:03:11.640Z,99244.41
2023-04-11T08:04:14.441Z,99243.03
2023-04-11T08:05:17.138Z,99252.16
2023-04-11T08:06:19.318Z,99263.06
2023-04-11T08:07:21.541Z,99251.97
2023-04-11T08:08:23.848Z,99250.75
2023-04-11T08:09:27.517Z,99249.47
2023-04-11T08:10:29.742Z,99263.09
2023-04-11T08:11:32.051Z,99252.31
2023-04-11T08:12:34.373Z,99252.31
2023-04-11T08:13:36.657Z,99251.94
2023-04-11T08:14:38.884Z,99269.81
2023-04-11T08:15:41.433Z,99257.84
2023-04-11T08:16:43.611Z,99262.50
2023-04-11T08:17:46.470Z,99258.00
2023-04-11T08:18:49.006Z,99256.78
2023-04-11T08:19:51.677Z,99269.78
2023-04-11T08:20:54.031Z,99268.84
2023-04-11T08:21:56.492Z,99273.16
2023-04-11T08:22:59.452Z,99265.47
2023-04-11T08:24:01.658Z,99257.25
2023-04-11T08:25:04.188Z,99265.25
2023-04-11T08:26:07.308Z,99261.97
2023-04-11T08:27:09.843Z,99259.00
2023-04-11T08:28:12.216Z,99262.84
2023-04-11T08:29:14.407Z,99262.84
2023-04-11T08:30:17.517Z,99266.84
2023-04-11T08:31:19.923Z,99260.56
2023-04-11T08:32:22.217Z,99269.06
2023-04-11T08:33:26.135Z,99278.41
2023-04-11T08:34:28.356Z,99273.94
2023-04-11T08:35:30.609Z,99279.81
2023-04-11T08:36:33.023Z,99284.38
2023-04-11T08:37:35.195Z,99267.88
2023-04-11T08:38:37.859Z,99278.25
2023-04-11T08:39:40.266Z,99285.69
2023-04-11T08:40:42.497Z,99264.59
2023-04-11T08:41:44.914Z,99276.16
2023-04-11T08:42:47.406Z,99267.84
2023-04-11T08:43:49.783Z,99273.06
2023-04-11T08:44:56.455Z,99272.25
2023-04-11T08:46:02.396Z,99277.47
2023-04-11T08:47:06.069Z,99279.00
2023-04-11T08:48:08.991Z,99280.22
2023-04-11T08:49:11.359Z,99282.19
2023-04-11T08:50:13.629Z,99284.47
2023-04-11T08:51:23.801Z,99288.94
2023-04-11T08:52:26.171Z,99286.53
2023-04-11T08:53:30.377Z,99281.47
2023-04-11T08:54:32.598Z,99272.72
2023-04-11T08:55:34.903Z,99278.88
2023-04-11T08:56:38.142Z,99285.81
2023-04-11T08:57:40.471Z,99283.28
2023-04-11T08:58:43.669Z,99285.41
2023-04-11T08:59:52.857Z,99285.94
2023-04-11T09:00:55.256Z,99278.00
2023-04-11T09:02:09.238Z,99283.88
2023-04-11T09:03:13.175Z,99278.00
2023-04-11T09:04:15.635Z,99293.44
2023-04-11T09:05:26.164Z,99295.47
2023-04-11T09:06:32.406Z,99292.81
2023-04-11T09:07:50.044Z,99286.22
2023-04-11T09:08:52.291Z,99293.16
2023-04-11T09:09:54.461Z,99290.69
2023-04-11T09:11:01.146Z,99290.75
2023-04-11T09:12:04.263Z,99276.66
2023-04-11T09:13:21.569Z,99283.63
2023-04-11T09:14:27.366Z,99296.47
2023-04-11T09:15:31.763Z,99283.31
2023-04-11T09:16:35.283Z,99284.63
2023-04-11T09:17:41.341Z,99278.63
2023-04-11T09:18:46.581Z,99281.59
2023-04-11T09:19:49.432Z,99283.31
2023-04-11T09:21:04.695Z,99274.53
2023-04-11T09:22:06.931Z,99283.28
2023-04-11T09:23:22.184Z,99268.88
2023-04-11T09:24:26.215Z,99286.63
2023-04-11T09:25:28.608Z,99271.38
2023-04-11T09:26:30.832Z,99286.09
2023-04-11T09:27:33.057Z,99271.28
2023-04-11T09:28:52.375Z,99279.06
2023-04-11T09:29:54.588Z,99259.53
2023-04-11T09:30:57.615Z,99265.25
2023-04-11T09:31:59.826Z,99261.31
2023-04-11T09:33:19.348Z,99261.41
2023-04-11T09:34:27.709Z,99265.00
2023-04-11T09:35:30.594Z,99253.31
2023-04-11T09:36:35.310Z,99251.50
2023-04-11T09:37:48.167Z,99254.69
2023-04-11T09:38:52.297Z,99257.25
2023-04-11T09:39:59.508Z,99270.09
2023-04-11T09:41:03.700Z,99270.34
2023-04-11T09:42:25.295Z,99257.84
2023-04-11T09:43:28.087Z,99255.19
2023-04-11T09:44:38.018Z,99261.75
2023-04-11T09:45:51.805Z,99263.31
2023-04-11T09:46:58.000Z,99272.50
2023-04-11T09:48:00.406Z,99267.03
2023-04-11T09:49:03.257Z,99269.78
2023-04-11T09:50:07.121Z,99262.22
2023-04-11T09:51:09.685Z,99259.97
2023-04-11T09:52:12.321Z,99258.53
2023-04-11T09:53:14.469Z,99254.25
2023-04-11T09:54:17.218Z,99258.63
2023-04-11T09:55:21.370Z,99259.28
2023-04-11T09:56:26.375Z,99248.63
2023-04-11T09:57:30.094Z,99256.59
2023-04-11T09:58:34.590Z,99262.16
2023-04-11T09:59:40.025Z,99264.22
2023-04-11T10:00:43.644Z,99258.63
2023-04-11T10:01:46.938Z,99256.22
2023-04-11T10:02:52.896Z,99260.28
2023-04-11T10:03:56.665Z,99270.53
2023-04-11T10:05:04.176Z,99265.34
2023-04-11T10:06:14.177Z,99263.94
2023-04-11T10:07:19.379Z,99264.31
2023-04-11T10:08:32.502Z,99282.56
2023-04-11T10:09:39.671Z,99268.22
2023-04-11T10:10:43.829Z,99266.84
2023-04-11T10:11:46.568Z,99263.78
2023-04-11T10:12:50.169Z,99262.44
2023-04-11T10:13:52.330Z,99267.72
2023-04-11T10:14:56.589Z,99266.41
2023-04-11T10:16:08.916Z,99278.72
2023-04-11T10:17:18.525Z,99281.25
2023-04-11T10:18:23.128Z,99282.03
2023-04-11T10:19:25.633Z,99287.88
2023-04-11T10:20:40.816Z,99287.38
2023-04-11T10:21:43.132Z,99271.56
2023-04-11T10:23:07.622Z,99284.56
2023-04-11T10:24:16.622Z,99272.47
2023-04-11T10:25:26.896Z,99270.31
2023-04-11T10:26:48.682Z,99275.16
2023-04-11T10:28:00.607Z,99275.38
2023-04-11T10:29:02.930Z,99268.34
2023-04-11T10:30:05.595Z,99259.72
2023-04-11T10:31:17.455Z,99263.41
2023-04-11T10:32:21.898Z,99275.28
2023-04-11T10:33:26.714Z,99276.34
2023-04-11T10:34:28.949Z,99276.66
2023-04-11T10:35:32.123Z,99267.34
2023-04-11T10:37:04.300Z,99273.50
2023-04-11T10:38:43.115Z,99285.69
2023-04-11T10:39:47.955Z,99276.03
2023-04-11T10:41:18.080Z,99276.75
2023-04-11T10:42:26.756Z,99261.34
2023-04-11T10:43:29.015Z,99277.34
2023-04-11T10:44:31.248Z,99258.56
2023-04-11T10:45:39.537Z,99258.53
2023-04-11T10:46:46.814Z,99256.91
2023-04-11T10:47:51.806Z,99262.13
2023-04-11T10:49:02.037Z,99267.44
2023-04-11T10:50:04.582Z,99279.63
2023-04-11T10:51:23.301Z,99275.75
2023-04-11T10:52:27.046Z,99264.94
2023-04-11T10:53:37.142Z,99271.97
2023-04-11T10:54:39.481Z,99259.31
2023-04-11T10:55:49.863Z,99258.47
2023-04-11T10:56:52.603Z,99263.41
2023-04-11T10:58:16.346Z,99267.13
2023-04-11T10:59:36.510Z,99262.34
2023-04-11T11:00:50.776Z,99257.06
2023-04-11T11:01:56.178Z,99260.47
2023-04-11T11:02:58.679Z,99263.88
2023-04-11T11:04:01.512Z,99271.50
2023-04-11T11:05:15.050Z,99266.28
2023-04-11T11:06:17.891Z,99268.94
2023-04-11T11:07:20.180Z,99271.56
2023-04-11T11:08:30.452Z,99278.84
2023-04-11T11:09:34.297Z,99275.94
2023-04-11T11:10:37.383Z,99272.94
2023-04-11T11:11:39.626Z,99244.81
2023-04-11T11:12:57.328Z,99254.88
2023-04-11T11:14:01.033Z,99247.66
2023-04-11T11:15:13.049Z,99253.47
2023-04-11T11:16:17.794Z,99270.56
2023-04-11T11:17:20.039Z,99264.97
2023-04-11T11:18:22.359Z,99263.22
2023-04-11T11:19:24.554Z,99259.31
2023-04-11T11:20:26.764Z,99267.78
2023-04-11T11:21:33.024Z,99267.56
2023-04-11T11:22:35.229Z,99260.91
2023-04-11T11:23:37.449Z,99263.41
2023-04-11T11:24:39.744Z,99261.38
2023-04-11T11:25:52.310Z,99274.88
2023-04-11T11:26:55.873Z,99255.78
2023-04-11T11:28:08.908Z,99265.00
2023-04-11T11:29:12.049Z,99265.50
2023-04-11T11:30:15.675Z,99261.03
2023-04-11T11:31:18.204Z,99263.53
2023-04-11T11:32:30.122Z,99270.66
2023-04-11T11:33:32.346Z,99275.69
2023-04-11T11:34:35.020Z,99268.16
2023-04-11T11:35:37.293Z,99276.41
2023-04-11T11:36:42.052Z,99272.22
2023-04-11T11:37:44.481Z,99274.19
2023-04-11T11:38:46.905Z,99277.09
2023-04-11T11:39:50.124Z,99289.09
2023-04-11T11:40:52.829Z,99297.44
2023-04-11T11:41:56.083Z,99290.25
2023-04-11T11:42:58.381Z,99305.72
2023-04-11T11:44:02.083Z,99297.38
2023-04-11T11:45:16.739Z,99304.81
2023-04-11T11:46:19.546Z,99290.00
2023-04-11T11:47:22.629Z,99296.19
2023-04-11T11:48:25.475Z,99296.09
2023-04-11T11:49:27.876Z,99302.44
2023-04-11T11:50:31.923Z,99312.16
2023-04-11T11:51:44.492Z,99298.00
2023-04-11T11:52:48.658Z,99299.22
2023-04-11T11:54:05.600Z,99288.59
2023-04-11T11:56:32.362Z,99298.47
2023-04-11T11:57:34.856Z,99289.47
2023-04-11T11:58:43.755Z,99301.03
2023-04-11T11:59:53.090Z,99298.22
2023-04-11T12:00:55.753Z,99308.06
2023-04-11T12:01:58.007Z,99316.13
2023-04-11T12:03:02.301Z,99324.69
2023-04-11T12:04:11.541Z,99318.84
2023-04-11T12:05:13.925Z,99313.03
2023-04-11T12:06:17.159Z,99314.88
2023-04-11T12:07:22.877Z,99322.56
2023-04-11T12:08:25.100Z,99325.78
2023-04-11T12:09:30.910Z,99310.72
2023-04-11T12:10:45.572Z,99317.06
2023-04-11T12:11:47.958Z,99308.34
2023-04-11T12:12:52.881Z,99305.09
2023-04-11T12:13:56.689Z,99300.31
2023-04-11T12:15:00.179Z,99304.41
2023-04-11T12:16:02.560Z,99301.97
2023-04-11T12:17:08.144Z,99299.56
2023-04-11T12:18:10.433Z,99305.09
2023-04-11T12:19:13.103Z,99297.34
2023-04-11T12:20:16.291Z,99292.50
2023-04-11T12:21:18.514Z,99287.63
2023-04-11T12:22:20.731Z,99288.09
2023-04-11T12:23:23.136Z,99283.38
2023-04-11T12:24:25.265Z,99287.41
2023-04-11T12:25:28.168Z,99279.88
2023-04-11T12:26:30.383Z,99292.78
2023-04-11T12:27:35.140Z,99286.06
2023-04-11T12:28:37.450Z,99289.72
2023-04-11T12:29:39.655Z,99283.69
2023-04-11T12:30:41.793Z,99294.09
2023-04-11T12:31:45.739Z,99298.19
2023-04-11T12:32:48.415Z,99307.25
2023-04-11T12:33:50.677Z,99302.69
2023-04-11T12:34:54.188Z,99311.63
2023-04-11T12:35:56.423Z,99298.81
2023-04-11T12:36:58.746Z,99301.44
2023-04-11T12:38:01.193Z,99297.28
2023-04-11T12:39:03.413Z,99299.13